Time;durP1;ratioP1;P1;durP2;ratioP2;P2;SDS_P1;SDS_P2;PMS_P1;PMS_P2;Temp;Humidity;BMP_temperature;BMP_pressure;BME280_temperature;BME280_humidity;BME280_pressure;Samples;Min_cycle;Max_cycle;Signal;HPM_P1;HPM_P2
2022/01/31 00:02:10;;;;;;;;;;;0.30;88.00;;;;;;5110391;28;20289;-88
2022/01/31 00:04:36;;;;;;;;;;;0.10;87.00;;;;;;5106878;28;19936;-88
2022/01/31 00:07:03;;;;;;;;;;;0.10;87.50;;;;;;5089984;28;20402;-87
2022/01/31 00:09:29;;;;;;;;;;;0.10;88.10;;;;;;5089799;28;19951;-88
2022/01/31 00:12:04;;;;;;;;;;;0.10;88.00;;;;;;5090889;28;20378;-88
2022/01/31 00:14:35;;;;;;;;;;;0.10;87.90;;;;;;5101280;28;19919;-88
2022/01/31 00:17:01;;;;;;;;;;;0.10;87.70;;;;;;5110136;28;20321;-88
2022/01/31 00:19:27;;;;;;;;;;;0.00;88.00;;;;;;5110166;28;19934;-88
2022/01/31 00:21:52;;;;;;;;;;;0.00;88.00;;;;;;5110686;28;19908;-88
2022/01/31 00:24:18;;;;;;;;;;;0.00;88.60;;;;;;5106352;28;20011;-88
2022/01/31 00:26:43;;;;;;;;;;;0.00;89.30;;;;;;5109615;28;19964;-88
2022/01/31 00:29:09;;;;;;;;;;;0.00;89.30;;;;;;5108303;28;20457;-88
2022/01/31 00:31:34;;;;;;;;;;;0.00;89.50;;;;;;5109920;28;19995;-88
2022/01/31 00:34:00;;;;;;;;;;;-3276.70;89.20;;;;;;5102792;28;19958;-88
2022/01/31 00:36:25;;;;;;;;;;;-3276.70;89.30;;;;;;5089470;28;19908;-88
2022/01/31 00:38:51;;;;;;;;;;;-3276.70;88.80;;;;;;5089777;28;19916;-88
2022/01/31 00:41:16;;;;;;;;;;;-3276.70;89.10;;;;;;5079433;28;20362;-88
2022/01/31 00:43:44;;;;;;;;;;;0.00;89.50;;;;;;5079757;28;19912;-88
2022/01/31 00:46:12;;;;;;;;;;;0.00;89.20;;;;;;5096313;28;19962;-88
2022/01/31 00:48:44;;;;;;;;;;;-3276.70;89.10;;;;;;5095929;28;19965;-88
2022/01/31 00:51:10;;;;;;;;;;;-3276.60;89.00;;;;;;5095884;28;20374;-88
2022/01/31 00:53:36;;;;;;;;;;;-3276.70;89.60;;;;;;5092686;28;19921;-88
2022/01/31 00:56:02;;;;;;;;;;;0.00;89.70;;;;;;5075620;28;19909;-88
2022/01/31 00:58:28;;;;;;;;;;;0.00;89.80;;;;;;5075564;28;20374;-88
2022/01/31 01:00:53;;;;;;;;;;;0.00;89.90;;;;;;5075548;28;19915;-88
2022/01/31 01:03:19;;;;;;;;;;;0.00;89.90;;;;;;5075522;28;20298;-87
2022/01/31 01:05:44;;;;;;;;;;;0.00;89.20;;;;;;5095313;28;20008;-87
2022/01/31 01:08:10;;;;;;;;;;;0.00;89.50;;;;;;5095506;28;20050;-87
2022/01/31 01:10:35;;;;;;;;;;;0.10;90.30;;;;;;5077648;28;19948;-87
2022/01/31 01:13:01;;;;;;;;;;;0.20;90.20;;;;;;5077184;28;19909;-87
2022/01/31 01:15:27;;;;;;;;;;;-3276.70;88.70;;;;;;5095535;28;19908;-87
2022/01/31 01:17:52;;;;;;;;;;;-3276.60;88.90;;;;;;5095426;28;19912;-87
2022/01/31 01:20:18;;;;;;;;;;;0.00;90.40;;;;;;5095412;28;19955;-87
2022/01/31 01:22:44;;;;;;;;;;;0.20;90.30;;;;;;5095588;28;19908;-87
2022/01/31 01:25:11;;;;;;;;;;;0.00;88.70;;;;;;5093624;28;19961;-87
2022/01/31 01:27:37;;;;;;;;;;;0.00;89.60;;;;;;5095161;28;19908;-87
2022/01/31 01:30:03;;;;;;;;;;;0.10;89.60;;;;;;5094966;28;19920;-87
2022/01/31 01:32:33;;;;;;;;;;;0.10;89.00;;;;;;5095155;28;20116;-87
2022/01/31 01:35:03;;;;;;;;;;;-3276.60;88.00;;;;;;5075375;28;19958;-87
2022/01/31 01:37:28;;;;;;;;;;;-3276.60;89.50;;;;;;5074811;28;19915;-87
2022/01/31 01:39:54;;;;;;;;;;;-3276.60;89.50;;;;;;5090051;28;19912;-87
2022/01/31 01:42:19;;;;;;;;;;;-3276.50;89.60;;;;;;5094955;28;19915;-87
2022/01/31 01:44:46;;;;;;;;;;;-3276.40;89.50;;;;;;5078883;28;19935;-87
2022/01/31 01:47:15;;;;;;;;;;;-3276.40;90.60;;;;;;5074603;28;19931;-87
2022/01/31 01:53:51;;;;;;;;;;;-3276.40;90.50;;;;;;5103346;27;19930;-87
2022/01/31 01:56:16;;;;;;;;;;;-3276.50;90.60;;;;;;5090668;28;19999;-87
2022/01/31 01:58:43;;;;;;;;;;;-3276.70;90.40;;;;;;5090609;28;20358;-87
2022/01/31 02:01:09;;;;;;;;;;;-3276.60;89.80;;;;;;5090549;28;19908;-87
2022/01/31 02:03:36;;;;;;;;;;;-3276.30;88.80;;;;;;5090184;28;19916;-87
2022/01/31 02:06:02;;;;;;;;;;;-3276.20;89.50;;;;;;5090501;28;19920;-87
2022/01/31 02:09:32;;;;;;;;;;;-3276.20;90.40;;;;;;5110315;27;19923;-88
2022/01/31 02:11:57;;;;;;;;;;;-3276.30;90.50;;;;;;5110931;28;19912;-87
2022/01/31 02:14:24;;;;;;;;;;;-3276.40;90.50;;;;;;5105243;28;19908;-87
2022/01/31 02:16:50;;;;;;;;;;;-3276.40;90.10;;;;;;5110924;28;19965;-87
2022/01/31 02:19:17;;;;;;;;;;;-3276.40;89.70;;;;;;5111123;28;19908;-87
2022/01/31 02:21:43;;;;;;;;;;;-3276.30;89.20;;;;;;5110849;28;20425;-87
2022/01/31 02:24:09;;;;;;;;;;;-3276.30;88.70;;;;;;5100467;28;19909;-87
2022/01/31 02:26:35;;;;;;;;;;;-3276.40;88.80;;;;;;5104014;28;19981;-87
2022/01/31 02:29:00;;;;;;;;;;;-3276.40;88.90;;;;;;5110462;28;19973;-87
2022/01/31 02:31:26;;;;;;;;;;;-3276.30;89.00;;;;;;5110628;28;19908;-87
2022/01/31 02:33:51;;;;;;;;;;;-3276.40;89.60;;;;;;5105633;28;19912;-87
2022/01/31 02:36:17;;;;;;;;;;;-3276.30;89.40;;;;;;5103964;28;19919;-87
2022/01/31 02:38:42;;;;;;;;;;;-3276.30;89.50;;;;;;5095595;28;19908;-87
2022/01/31 02:41:08;;;;;;;;;;;-3276.30;89.70;;;;;;5108669;28;19965;-87
2022/01/31 02:43:34;;;;;;;;;;;-3276.40;90.00;;;;;;5110390;28;20014;-87
2022/01/31 02:46:00;;;;;;;;;;;-3276.40;90.10;;;;;;5110338;28;20247;-87
2022/01/31 02:48:29;;;;;;;;;;;-3276.50;90.00;;;;;;5110201;28;19919;-88
2022/01/31 02:50:55;;;;;;;;;;;-3276.40;89.70;;;;;;5099683;28;20287;-87
2022/01/31 02:55:47;;;;;;;;;;;-3276.40;90.00;;;;;;5091101;28;19912;-87
2022/01/31 02:58:13;;;;;;;;;;;-3276.30;90.20;;;;;;5108865;28;19908;-88
2022/01/31 03:00:39;;;;;;;;;;;-3276.40;90.30;;;;;;5099993;28;19919;-87
2022/01/31 03:03:05;;;;;;;;;;;-3276.30;90.00;;;;;;5110032;28;19912;-87
2022/01/31 03:05:31;;;;;;;;;;;-3276.10;90.40;;;;;;5110231;28;19939;-88
2022/01/31 03:07:56;;;;;;;;;;;-3276.20;90.50;;;;;;5107832;28;19920;-88
2022/01/31 03:10:22;;;;;;;;;;;-3276.20;90.30;;;;;;5089361;28;19923;-88
2022/01/31 03:12:47;;;;;;;;;;;-3276.30;90.10;;;;;;5089488;28;19908;-87
2022/01/31 03:15:13;;;;;;;;;;;-3276.20;90.20;;;;;;5089740;28;19909;-88
2022/01/31 03:17:42;;;;;;;;;;;-3276.30;90.30;;;;;;5089405;28;19920;-87
2022/01/31 03:20:07;;;;;;;;;;;-3276.40;90.60;;;;;;5099303;28;19908;-87
2022/01/31 03:22:33;;;;;;;;;;;-3276.40;90.60;;;;;;5096045;28;19919;-87
2022/01/31 03:24:59;;;;;;;;;;;-3276.40;90.50;;;;;;5079019;28;19914;-87
2022/01/31 03:27:25;;;;;;;;;;;-3276.50;90.30;;;;;;5075631;28;20013;-87
2022/01/31 03:29:50;;;;;;;;;;;-3276.50;90.10;;;;;;5092206;28;19991;-87
2022/01/31 03:32:16;;;;;;;;;;;-3276.50;89.90;;;;;;5095884;28;19916;-87
2022/01/31 03:34:41;;;;;;;;;;;-3276.40;89.70;;;;;;5095873;28;19912;-87
2022/01/31 03:37:07;;;;;;;;;;;-3276.40;89.70;;;;;;5095799;28;19908;-87
2022/01/31 03:39:32;;;;;;;;;;;-3276.50;89.70;;;;;;5081220;28;19991;-87
2022/01/31 03:41:58;;;;;;;;;;;-3276.60;89.40;;;;;;5075510;28;19959;-87
2022/01/31 03:44:24;;;;;;;;;;;-3276.60;89.00;;;;;;5075498;28;19912;-88
2022/01/31 03:46:49;;;;;;;;;;;-3276.60;88.70;;;;;;5075417;28;19916;-88
2022/01/31 03:49:15;;;;;;;;;;;-3276.60;88.50;;;;;;5076297;28;19913;-87
2022/01/31 03:51:40;;;;;;;;;;;-3276.60;88.30;;;;;;5075337;28;20342;-88
2022/01/31 03:54:06;;;;;;;;;;;-3276.70;88.40;;;;;;5083529;28;19930;-87
2022/01/31 03:56:32;;;;;;;;;;;-3276.70;88.40;;;;;;5095737;28;19916;-87
2022/01/31 03:58:57;;;;;;;;;;;-3276.70;88.40;;;;;;5085493;28;20370;-87
2022/01/31 04:01:23;;;;;;;;;;;-3276.70;88.60;;;;;;5075132;28;19919;-87
2022/01/31 04:03:49;;;;;;;;;;;0.00;88.80;;;;;;5075102;28;19948;-87
2022/01/31 04:06:14;;;;;;;;;;;0.10;89.10;;;;;;5075005;28;19913;-86
2022/01/31 04:08:40;;;;;;;;;;;0.20;88.00;;;;;;5081243;28;19920;-86
2022/01/31 04:11:05;;;;;;;;;;;0.20;87.20;;;;;;5090802;28;20445;-86
2022/01/31 04:13:31;;;;;;;;;;;0.20;87.00;;;;;;5095139;28;20339;-86
2022/01/31 04:15:56;;;;;;;;;;;0.00;87.50;;;;;;5095044;28;20369;-86
2022/01/31 04:18:22;;;;;;;;;;;0.00;88.00;;;;;;5090841;28;19920;-86
2022/01/31 04:20:47;;;;;;;;;;;0.10;87.90;;;;;;5074720;28;19908;-86
2022/01/31 04:23:16;;;;;;;;;;;0.10;87.70;;;;;;5074287;28;19908;-86
2022/01/31 04:28:22;;;;;;;;;;;0.10;87.70;;;;;;5091464;28;19924;-86
2022/01/31 04:30:56;;;;;;;;;;;0.10;87.70;;;;;;5074036;28;19924;-86
2022/01/31 04:33:22;;;;;;;;;;;-3276.70;87.30;;;;;;5074449;28;19932;-87
2022/01/31 04:35:48;;;;;;;;;;;-3276.50;87.60;;;;;;5074743;28;19957;-87
2022/01/31 04:38:13;;;;;;;;;;;-3276.60;88.40;;;;;;5076446;28;19920;-87
2022/01/31 04:40:39;;;;;;;;;;;-3276.70;88.70;;;;;;5094562;28;20370;-87
2022/01/31 04:43:05;;;;;;;;;;;0.00;88.90;;;;;;5094598;28;19957;-87
2022/01/31 04:45:30;;;;;;;;;;;0.20;88.80;;;;;;5090996;28;19917;-87
2022/01/31 04:47:56;;;;;;;;;;;0.30;88.60;;;;;;5074055;28;19922;-87
2022/01/31 04:50:21;;;;;;;;;;;0.20;88.10;;;;;;5074177;28;20374;-87
2022/01/31 04:52:47;;;;;;;;;;;0.20;87.90;;;;;;5074128;28;19908;-87
2022/01/31 04:55:12;;;;;;;;;;;0.20;87.50;;;;;;5077657;28;20286;-87
2022/01/31 04:57:38;;;;;;;;;;;0.20;87.50;;;;;;5074056;28;20382;-87
2022/01/31 05:00:05;;;;;;;;;;;0.30;87.80;;;;;;5073952;28;19908;-87
2022/01/31 05:02:31;;;;;;;;;;;0.20;87.70;;;;;;5073985;28;19916;-87
2022/01/31 05:04:56;;;;;;;;;;;0.00;87.40;;;;;;5087919;28;20340;-86
2022/01/31 05:07:22;;;;;;;;;;;-3276.60;87.40;;;;;;5093750;28;19919;-86
2022/01/31 05:09:48;;;;;;;;;;;-3276.40;88.60;;;;;;5082714;28;19916;-86
2022/01/31 05:12:14;;;;;;;;;;;-3276.40;89.80;;;;;;5073747;28;19909;-86
2022/01/31 05:14:39;;;;;;;;;;;-3276.30;90.60;;;;;;5085302;28;19912;-87
2022/01/31 05:17:05;;;;;;;;;;;-3276.40;90.80;;;;;;5093849;28;20300;-86
2022/01/31 05:19:30;;;;;;;;;;;-3276.60;90.80;;;;;;5093844;28;19973;-86
2022/01/31 05:21:56;;;;;;;;;;;-3276.60;90.80;;;;;;5093823;28;19963;-87
2022/01/31 05:24:21;;;;;;;;;;;-3276.70;90.80;;;;;;5092081;28;19923;-87
2022/01/31 05:26:51;;;;;;;;;;;-3276.60;90.90;;;;;;5093787;28;19908;-87
2022/01/31 05:29:19;;;;;;;;;;;-3276.60;90.90;;;;;;5093765;28;19912;-87
2022/01/31 05:31:46;;;;;;;;;;;-3276.70;90.90;;;;;;5080201;28;19912;-87
2022/01/31 05:34:12;;;;;;;;;;;-3276.70;90.90;;;;;;5073402;28;19908;-86
2022/01/31 05:36:38;;;;;;;;;;;0.00;91.10;;;;;;5073351;28;20007;-86
2022/01/31 05:39:04;;;;;;;;;;;0.00;91.30;;;;;;5077477;28;19912;-87
2022/01/31 05:41:29;;;;;;;;;;;0.00;91.30;;;;;;5093529;28;19953;-87
2022/01/31 05:43:55;;;;;;;;;;;0.00;91.20;;;;;;5093294;28;19938;-87
2022/01/31 05:46:20;;;;;;;;;;;0.10;91.10;;;;;;5093058;28;20361;-86
2022/01/31 05:48:46;;;;;;;;;;;0.00;90.50;;;;;;5091248;28;20404;-86
2022/01/31 05:51:19;;;;;;;;;;;0.00;90.60;;;;;;5073616;28;19916;-87
2022/01/31 05:53:46;;;;;;;;;;;-3276.70;90.60;;;;;;5072299;28;19934;-87
2022/01/31 05:56:12;;;;;;;;;;;0.00;90.70;;;;;;5103575;28;19919;-87
2022/01/31 05:58:37;;;;;;;;;;;-3276.70;90.60;;;;;;5071140;28;19912;-87
2022/01/31 06:01:03;;;;;;;;;;;0.00;90.60;;;;;;5069951;28;19913;-87
2022/01/31 06:03:28;;;;;;;;;;;0.00;90.60;;;;;;5071324;28;19912;-87
2022/01/31 06:05:54;;;;;;;;;;;0.00;90.40;;;;;;5071776;28;19912;-87
2022/01/31 06:08:19;;;;;;;;;;;0.00;90.20;;;;;;5071233;28;19948;-87
2022/01/31 06:10:48;;;;;;;;;;;0.00;89.90;;;;;;5070496;28;20313;-87
2022/01/31 06:13:16;;;;;;;;;;;-3276.70;90.10;;;;;;5072116;28;19951;-87
2022/01/31 06:15:41;;;;;;;;;;;-3276.70;90.20;;;;;;5070914;28;19912;-87
2022/01/31 06:18:07;;;;;;;;;;;-3276.60;90.20;;;;;;5071932;28;19982;-87
2022/01/31 06:20:32;;;;;;;;;;;-3276.60;90.20;;;;;;5069731;28;19920;-87
2022/01/31 06:22:58;;;;;;;;;;;-3276.60;90.30;;;;;;5071955;28;19920;-87
2022/01/31 06:25:23;;;;;;;;;;;-3276.60;90.20;;;;;;5071780;28;19919;-87
2022/01/31 06:27:51;;;;;;;;;;;-3276.60;90.10;;;;;;5069821;28;20313;-87
2022/01/31 06:30:16;;;;;;;;;;;-3276.60;89.90;;;;;;5071197;28;19917;-87
2022/01/31 06:32:42;;;;;;;;;;;-3276.60;90.20;;;;;;5069990;28;19924;-87
2022/01/31 06:35:08;;;;;;;;;;;0.00;90.50;;;;;;5068988;28;19912;-87
2022/01/31 06:37:34;;;;;;;;;;;0.00;90.30;;;;;;5073373;28;19912;-86
2022/01/31 06:40:00;;;;;;;;;;;0.00;90.10;;;;;;5071616;28;20318;-86
2022/01/31 06:42:25;;;;;;;;;;;0.00;90.30;;;;;;5069514;28;20295;-86
2022/01/31 06:44:51;;;;;;;;;;;0.10;90.40;;;;;;5069639;28;20115;-88
2022/01/31 06:47:18;;;;;;;;;;;0.20;90.00;;;;;;5069663;28;20352;-86
2022/01/31 06:49:43;;;;;;;;;;;0.20;89.70;;;;;;5070940;28;20136;-86
2022/01/31 06:52:09;;;;;;;;;;;0.30;89.80;;;;;;5072303;28;20171;-86
2022/01/31 06:54:35;;;;;;;;;;;0.30;89.40;;;;;;5070753;28;19912;-86
2022/01/31 06:57:01;;;;;;;;;;;0.40;88.70;;;;;;5073921;28;19920;-87
2022/01/31 06:59:27;;;;;;;;;;;0.40;88.30;;;;;;5073936;28;19923;-87
2022/01/31 07:01:52;;;;;;;;;;;0.30;87.90;;;;;;5072209;28;19920;-87
2022/01/31 07:04:18;;;;;;;;;;;0.30;88.00;;;;;;5070856;28;19912;-87
2022/01/31 07:06:43;;;;;;;;;;;0.20;88.40;;;;;;5080511;28;19920;-86
2022/01/31 07:09:09;;;;;;;;;;;0.30;88.50;;;;;;5072415;28;19924;-87
2022/01/31 07:11:39;;;;;;;;;;;0.30;88.60;;;;;;5072574;28;19974;-88
2022/01/31 07:14:08;;;;;;;;;;;0.40;88.50;;;;;;5073713;28;19913;-87
2022/01/31 07:16:34;;;;;;;;;;;0.50;88.10;;;;;;5072838;28;19924;-87
2022/01/31 07:19:06;;;;;;;;;;;0.40;87.60;;;;;;5072953;28;19912;-88
2022/01/31 07:21:46;;;;;;;;;;;0.50;87.40;;;;;;5076803;28;19916;-87
2022/01/31 07:26:50;;;;;;;;;;;0.60;87.10;;;;;;5085942;28;20376;-87
2022/01/31 07:29:17;;;;;;;;;;;0.60;86.70;;;;;;5076366;28;19983;-87
2022/01/31 07:31:44;;;;;;;;;;;0.70;86.80;;;;;;5073894;28;20402;-87
2022/01/31 07:34:12;;;;;;;;;;;0.60;86.70;;;;;;5076140;28;19935;-88
2022/01/31 07:36:37;;;;;;;;;;;0.70;87.20;;;;;;5073222;28;19912;-88
2022/01/31 07:39:03;;;;;;;;;;;0.80;87.40;;;;;;5074607;28;20015;-87
2022/01/31 07:41:28;;;;;;;;;;;0.90;87.50;;;;;;5072451;28;21528;-87
2022/01/31 07:43:54;;;;;;;;;;;1.00;87.50;;;;;;5072353;28;19948;-87
2022/01/31 07:46:19;;;;;;;;;;;1.20;87.30;;;;;;5082385;28;20247;-86
2022/01/31 07:48:45;;;;;;;;;;;1.40;86.70;;;;;;5077528;28;19924;-86
2022/01/31 07:51:11;;;;;;;;;;;1.40;86.30;;;;;;5073267;28;19919;-87
2022/01/31 07:53:39;;;;;;;;;;;1.40;86.20;;;;;;5076252;28;19928;-87
2022/01/31 07:56:08;;;;;;;;;;;1.40;86.80;;;;;;5079557;28;19959;-88
2022/01/31 07:58:34;;;;;;;;;;;1.50;86.70;;;;;;5076879;28;20390;-88
2022/01/31 08:01:00;;;;;;;;;;;1.60;86.00;;;;;;5074703;28;21407;-86
2022/01/31 08:03:26;;;;;;;;;;;1.70;85.30;;;;;;5077091;28;19912;-87
2022/01/31 08:05:51;;;;;;;;;;;1.80;85.00;;;;;;5076496;28;20412;-87
2022/01/31 08:08:17;;;;;;;;;;;1.80;85.00;;;;;;5077310;28;20302;-86
2022/01/31 08:10:43;;;;;;;;;;;1.80;84.40;;;;;;5074319;28;19916;-86
2022/01/31 08:13:09;;;;;;;;;;;1.90;84.50;;;;;;5078462;28;20010;-87
2022/01/31 08:15:45;;;;;;;;;;;1.90;84.70;;;;;;5070223;28;19921;-87
2022/01/31 08:18:11;;;;;;;;;;;2.00;84.60;;;;;;5062816;28;19920;-87
2022/01/31 08:20:37;;;;;;;;;;;2.00;84.50;;;;;;5077471;28;20278;-87
2022/01/31 08:23:02;;;;;;;;;;;2.00;84.50;;;;;;5077476;28;20403;-87
2022/01/31 08:25:29;;;;;;;;;;;2.10;84.70;;;;;;5073508;28;19962;-87
2022/01/31 08:28:00;;;;;;;;;;;2.20;85.00;;;;;;5074574;28;19932;-86
2022/01/31 08:30:36;;;;;;;;;;;2.40;84.50;;;;;;5074808;28;19920;-86
2022/01/31 08:33:12;;;;;;;;;;;2.50;84.30;;;;;;5074100;28;19920;-86
2022/01/31 08:35:48;;;;;;;;;;;2.40;84.20;;;;;;5077882;28;20358;-85
2022/01/31 08:38:15;;;;;;;;;;;2.40;84.40;;;;;;5074048;28;19938;-86
2022/01/31 08:40:42;;;;;;;;;;;2.40;84.50;;;;;;5077376;28;20370;-86
2022/01/31 08:43:07;;;;;;;;;;;2.40;84.90;;;;;;5075227;28;19912;-86
2022/01/31 08:45:36;;;;;;;;;;;2.30;86.60;;;;;;5073311;28;20370;-86
2022/01/31 08:48:02;;;;;;;;;;;2.20;86.90;;;;;;5073081;28;19973;-86
2022/01/31 08:50:28;;;;;;;;;;;2.10;87.00;;;;;;5074545;28;19920;-86
2022/01/31 08:52:53;;;;;;;;;;;2.20;86.80;;;;;;5071743;28;19966;-86
2022/01/31 08:55:20;;;;;;;;;;;2.30;86.50;;;;;;5075487;28;19917;-86
2022/01/31 08:57:53;;;;;;;;;;;2.30;86.10;;;;;;5074807;28;19916;-86
2022/01/31 09:00:19;;;;;;;;;;;2.20;87.30;;;;;;5071055;28;19973;-86
2022/01/31 09:02:59;;;;;;;;;;;2.30;87.40;;;;;;5071144;28;19912;-86
2022/01/31 09:05:25;;;;;;;;;;;2.30;87.10;;;;;;5069458;28;19919;-86
2022/01/31 09:07:51;;;;;;;;;;;2.40;87.00;;;;;;5071423;28;19924;-86
2022/01/31 09:10:18;;;;;;;;;;;2.40;86.70;;;;;;5070838;28;19918;-86
2022/01/31 09:12:44;;;;;;;;;;;2.40;86.60;;;;;;5074809;28;19912;-86
2022/01/31 09:15:12;;;;;;;;;;;2.50;86.40;;;;;;5070853;28;20285;-87
2022/01/31 09:17:38;;;;;;;;;;;2.50;86.50;;;;;;5072459;28;19920;-88
2022/01/31 09:20:04;;;;;;;;;;;2.50;86.40;;;;;;5070560;28;19920;-87
2022/01/31 09:22:30;;;;;;;;;;;2.60;85.90;;;;;;5070405;28;19912;-86
2022/01/31 09:24:55;;;;;;;;;;;2.70;86.40;;;;;;5074431;28;19912;-86
2022/01/31 09:27:21;;;;;;;;;;;2.70;86.60;;;;;;5070569;28;19927;-86
2022/01/31 09:29:46;;;;;;;;;;;2.80;86.70;;;;;;5071415;28;20382;-86
2022/01/31 09:32:13;;;;;;;;;;;2.90;86.70;;;;;;5070956;28;20587;-86
2022/01/31 09:34:40;;;;;;;;;;;3.10;86.50;;;;;;5069510;28;19924;-86
2022/01/31 09:37:06;;;;;;;;;;;3.20;85.80;;;;;;5072779;28;19912;-86
2022/01/31 09:39:32;;;;;;;;;;;3.20;84.70;;;;;;5070335;28;19927;-86
2022/01/31 09:41:58;;;;;;;;;;;3.40;84.20;;;;;;5068878;28;20429;-86
2022/01/31 09:49:47;;;;;;;;;;;3.40;84.70;;;;;;5072472;28;19963;-87
2022/01/31 09:52:13;;;;;;;;;;;3.40;84.70;;;;;;5072458;28;19970;-86
2022/01/31 09:54:38;;;;;;;;;;;3.40;84.40;;;;;;5074122;28;19920;-86
2022/01/31 09:57:04;;;;;;;;;;;3.50;85.10;;;;;;5081252;28;19913;-86
2022/01/31 09:59:30;;;;;;;;;;;3.60;84.90;;;;;;5072543;28;20267;-86
2022/01/31 10:01:57;;;;;;;;;;;3.70;84.60;;;;;;5069577;28;19935;-87
2022/01/31 10:04:25;;;;;;;;;;;3.70;84.20;;;;;;5079154;28;20011;-86
2022/01/31 10:06:52;;;;;;;;;;;3.80;84.60;;;;;;5071515;28;19913;-86
2022/01/31 10:09:18;;;;;;;;;;;4.00;84.40;;;;;;5076031;22;19928;-86
2022/01/31 10:17:19;;;;;;;;;;;4.50;81.10;;;;;;5061092;28;19920;-87
2022/01/31 10:19:44;;;;;;;;;;;4.60;80.60;;;;;;5060781;28;19912;-86
2022/01/31 10:22:13;;;;;;;;;;;4.70;80.20;;;;;;5065287;28;19920;-86
2022/01/31 10:24:39;;;;;;;;;;;4.50;79.70;;;;;;5063373;28;19912;-86
2022/01/31 10:27:09;;;;;;;;;;;4.40;80.30;;;;;;5065416;28;19921;-86
2022/01/31 10:29:34;;;;;;;;;;;4.30;80.70;;;;;;5059080;28;19928;-86
2022/01/31 10:32:05;;;;;;;;;;;4.30;81.20;;;;;;5070575;28;19912;-87
2022/01/31 10:34:39;;;;;;;;;;;4.40;81.70;;;;;;5063100;28;19921;-86
2022/01/31 10:37:06;;;;;;;;;;;4.30;82.30;;;;;;5065498;28;19924;-86
2022/01/31 10:54:08;;;;;;;;;;;4.40;82.80;;;;;;5068134;28;19934;-87
2022/01/31 10:56:44;;;;;;;;;;;4.50;82.70;;;;;;5069128;28;19963;-86
2022/01/31 10:59:10;;;;;;;;;;;4.50;82.50;;;;;;5064294;28;19947;-87
2022/01/31 11:01:38;;;;;;;;;;;4.60;82.20;;;;;;5068444;28;19998;-86
2022/01/31 11:04:05;;;;;;;;;;;4.50;82.20;;;;;;5064962;28;20473;-86
2022/01/31 11:06:31;;;;;;;;;;;4.50;82.20;;;;;;5067415;28;19999;-86
2022/01/31 11:09:01;;;;;;;;;;;4.50;81.60;;;;;;5063849;28;19935;-86
2022/01/31 11:11:27;;;;;;;;;;;4.50;81.20;;;;;;5067781;28;19928;-86
2022/01/31 11:13:54;;;;;;;;;;;4.60;81.60;;;;;;5069467;28;19917;-86
2022/01/31 11:16:20;;;;;;;;;;;4.50;80.60;;;;;;5064057;28;19916;-86
2022/01/31 11:18:47;;;;;;;;;;;4.40;80.60;;;;;;5075564;28;20358;-87
2022/01/31 11:21:13;;;;;;;;;;;4.40;80.80;;;;;;5063691;28;20011;-86
2022/01/31 11:23:41;;;;;;;;;;;4.50;80.80;;;;;;5075880;28;19908;-86
2022/01/31 11:26:08;;;;;;;;;;;4.50;80.80;;;;;;5074517;28;20302;-86
2022/01/31 11:28:34;;;;;;;;;;;4.50;80.70;;;;;;5075186;28;19917;-86
2022/01/31 11:31:01;;;;;;;;;;;4.60;80.20;;;;;;5075401;28;19912;-86
2022/01/31 11:33:28;;;;;;;;;;;4.70;80.40;;;;;;5075664;28;20385;-86
2022/01/31 11:35:53;;;;;;;;;;;4.80;79.70;;;;;;5075696;28;20003;-86
2022/01/31 11:38:19;;;;;;;;;;;5.00;79.50;;;;;;5075608;28;20002;-86
2022/01/31 11:40:46;;;;;;;;;;;5.30;79.30;;;;;;5074632;28;19912;-86
2022/01/31 11:43:12;;;;;;;;;;;5.40;78.10;;;;;;5074380;28;19909;-87
2022/01/31 11:45:39;;;;;;;;;;;5.60;77.20;;;;;;5075222;28;19913;-87
2022/01/31 11:48:07;;;;;;;;;;;5.90;77.30;;;;;;5075376;28;19967;-86
2022/01/31 11:50:41;;;;;;;;;;;6.20;75.70;;;;;;5073466;28;20009;-86
2022/01/31 11:53:07;;;;;;;;;;;6.60;75.80;;;;;;5075307;28;19912;-86
2022/01/31 11:55:35;;;;;;;;;;;7.00;71.80;;;;;;5075273;28;19921;-86
2022/01/31 11:58:02;;;;;;;;;;;7.30;71.90;;;;;;5059522;28;19912;-87
2022/01/31 12:00:28;;;;;;;;;;;7.60;70.20;;;;;;5074856;28;19935;-87
2022/01/31 12:02:55;;;;;;;;;;;7.60;70.40;;;;;;5074474;28;19923;-87
2022/01/31 12:05:23;;;;;;;;;;;7.90;70.00;;;;;;5075143;28;19915;-86
2022/01/31 12:08:19;;;;;;;;;;;8.20;69.20;;;;;;5073939;28;19921;-87
2022/01/31 12:10:47;;;;;;;;;;;8.40;66.90;;;;;;5061931;28;19908;-87
2022/01/31 12:13:48;;;;;;;;;;;8.70;66.30;;;;;;5074950;28;19916;-87
2022/01/31 12:22:02;;;;;;;;;;;10.10;61.50;;;;;;5054796;28;19913;-87
2022/01/31 12:24:27;;;;;;;;;;;10.40;59.30;;;;;;5069632;28;19912;-87
2022/01/31 12:26:55;;;;;;;;;;;10.60;58.10;;;;;;5074154;28;19962;-87
2022/01/31 12:29:22;;;;;;;;;;;11.10;58.10;;;;;;5080163;28;19969;-87
2022/01/31 12:31:49;;;;;;;;;;;11.40;56.80;;;;;;5059876;28;20414;-87
2022/01/31 12:34:17;;;;;;;;;;;11.70;55.10;;;;;;5069648;28;19957;-87
2022/01/31 12:36:43;;;;;;;;;;;11.70;54.20;;;;;;5070588;28;20038;-87
2022/01/31 12:39:27;;;;;;;;;;;11.50;54.70;;;;;;5066776;28;20370;-87
2022/01/31 12:42:01;;;;;;;;;;;11.80;55.30;;;;;;5065663;28;19969;-87
2022/01/31 12:44:33;;;;;;;;;;;12.70;54.00;;;;;;5062370;28;20275;-88
2022/01/31 12:47:19;;;;;;;;;;;13.70;51.60;;;;;;5067959;28;19913;-88
2022/01/31 12:49:45;;;;;;;;;;;14.30;49.70;;;;;;5055697;28;20094;-88
2022/01/31 12:52:11;;;;;;;;;;;15.10;48.70;;;;;;5064629;28;20389;-88
2022/01/31 12:54:38;;;;;;;;;;;15.90;46.10;;;;;;5066210;28;19916;-88
2022/01/31 12:57:08;;;;;;;;;;;16.20;45.50;;;;;;5062311;28;19916;-87
2022/01/31 12:59:34;;;;;;;;;;;15.70;45.20;;;;;;5064085;28;19916;-88
2022/01/31 13:02:03;;;;;;;;;;;15.00;47.10;;;;;;5063772;28;19927;-87
2022/01/31 13:04:28;;;;;;;;;;;14.00;49.20;;;;;;5066053;28;20053;-88
2022/01/31 13:06:59;;;;;;;;;;;13.90;50.50;;;;;;5062278;28;20014;-87
2022/01/31 13:09:29;;;;;;;;;;;14.10;50.40;;;;;;5064362;28;19921;-87
2022/01/31 13:12:00;;;;;;;;;;;13.90;49.90;;;;;;5066996;28;19965;-87
2022/01/31 13:14:29;;;;;;;;;;;14.20;49.70;;;;;;5067720;28;20327;-87
2022/01/31 13:17:03;;;;;;;;;;;13.90;51.00;;;;;;5061636;28;19913;-87
2022/01/31 13:19:32;;;;;;;;;;;13.90;51.60;;;;;;5064175;28;19912;-88
2022/01/31 13:21:58;;;;;;;;;;;14.40;50.40;;;;;;5060962;28;19912;-88
2022/01/31 13:24:56;;;;;;;;;;;14.80;49.90;;;;;;5060958;28;19963;-87
2022/01/31 13:27:29;;;;;;;;;;;14.90;48.30;;;;;;5043505;28;19912;-87
2022/01/31 13:29:55;;;;;;;;;;;14.40;49.90;;;;;;5062852;28;19917;-87
2022/01/31 13:32:34;;;;;;;;;;;14.50;49.60;;;;;;5060797;28;19912;-87
2022/01/31 13:35:01;;;;;;;;;;;14.30;50.50;;;;;;5061167;28;20354;-87
2022/01/31 13:37:28;;;;;;;;;;;13.90;51.10;;;;;;5066866;28;19962;-87
2022/01/31 13:39:54;;;;;;;;;;;13.70;51.80;;;;;;5065839;28;19916;-87
2022/01/31 13:42:26;;;;;;;;;;;13.20;53.10;;;;;;5076027;28;19920;-87
2022/01/31 13:44:54;;;;;;;;;;;13.10;53.10;;;;;;5066481;28;19919;-87
2022/01/31 13:47:40;;;;;;;;;;;13.40;52.70;;;;;;5071757;28;19970;-87
2022/01/31 13:50:13;;;;;;;;;;;13.50;52.60;;;;;;5068912;28;19923;-87
2022/01/31 13:52:48;;;;;;;;;;;13.90;51.90;;;;;;5073674;28;19912;-87
2022/01/31 13:55:14;;;;;;;;;;;14.30;50.80;;;;;;5064599;28;20366;-87
2022/01/31 13:57:40;;;;;;;;;;;14.10;50.40;;;;;;5070986;28;19912;-87
2022/01/31 14:00:06;;;;;;;;;;;14.20;50.40;;;;;;5070705;28;19913;-88
2022/01/31 14:02:31;;;;;;;;;;;14.40;49.90;;;;;;5069385;28;19978;-88
2022/01/31 14:04:57;;;;;;;;;;;14.60;49.40;;;;;;5064924;28;19921;-88
2022/01/31 14:07:23;;;;;;;;;;;14.60;49.20;;;;;;5069630;28;21641;-88
2022/01/31 14:09:49;;;;;;;;;;;14.60;49.20;;;;;;5060992;28;19923;-87
2022/01/31 14:12:15;;;;;;;;;;;14.40;48.60;;;;;;5065466;28;19912;-87
2022/01/31 14:14:43;;;;;;;;;;;14.10;49.90;;;;;;5065069;28;20013;-87
2022/01/31 14:17:09;;;;;;;;;;;14.30;50.20;;;;;;5060969;28;19912;-87
2022/01/31 14:19:38;;;;;;;;;;;13.50;51.20;;;;;;5060656;28;20443;-87
2022/01/31 14:22:06;;;;;;;;;;;13.00;52.90;;;;;;5062623;28;20003;-86
2022/01/31 14:24:33;;;;;;;;;;;13.40;52.80;;;;;;5060687;28;19912;-87
2022/01/31 14:27:05;;;;;;;;;;;13.80;52.30;;;;;;5065606;28;19913;-87
2022/01/31 14:29:34;;;;;;;;;;;14.40;50.50;;;;;;5066087;28;19916;-87
2022/01/31 14:31:59;;;;;;;;;;;15.20;48.40;;;;;;5061816;28;19912;-88
2022/01/31 14:34:26;;;;;;;;;;;15.70;46.90;;;;;;5065012;28;20373;-88
2022/01/31 14:37:04;;;;;;;;;;;16.10;45.90;;;;;;5061205;28;20298;-88
2022/01/31 14:39:46;;;;;;;;;;;16.40;45.20;;;;;;5059326;28;19948;-88
2022/01/31 14:47:51;;;;;;;;;;;14.90;48.30;;;;;;5058294;28;20270;-87
2022/01/31 14:50:18;;;;;;;;;;;14.30;50.10;;;;;;5063933;28;19913;-87
2022/01/31 14:52:44;;;;;;;;;;;14.10;51.30;;;;;;5065443;28;19916;-87
2022/01/31 14:55:12;;;;;;;;;;;13.70;51.70;;;;;;5067714;28;19920;-87
2022/01/31 14:57:38;;;;;;;;;;;13.10;52.80;;;;;;5066306;28;20318;-88
2022/01/31 15:00:05;;;;;;;;;;;13.10;53.70;;;;;;5058430;28;19955;-87
2022/01/31 15:02:32;;;;;;;;;;;13.40;52.30;;;;;;5063241;28;20358;-88
2022/01/31 15:05:04;;;;;;;;;;;13.70;51.90;;;;;;5060959;28;19921;-88